Time;durP1;ratioP1;P1;durP2;ratioP2;P2;SDS_P1;SDS_P2;PMS_P1;PMS_P2;Temp;Humidity;BMP_temperature;BMP_pressure;BME280_temperature;BME280_humidity;BME280_pressure;Samples;Min_cycle;Max_cycle;Signal;HPM_P1;HPM_P2
2022/07/26 00:00:09;;;;;;;;;;;14.90;99.90;;;;;;4995037;28;19921;-70
2022/07/26 00:02:34;;;;;;;;;;;14.90;99.90;;;;;;4989672;28;20024;-69
2022/07/26 00:05:00;;;;;;;;;;;14.80;99.90;;;;;;4986524;28;20012;-70
2022/07/26 00:07:25;;;;;;;;;;;14.80;99.90;;;;;;4992698;28;19917;-70
2022/07/26 00:09:51;;;;;;;;;;;14.80;99.90;;;;;;4974774;28;19913;-70
2022/07/26 00:12:16;;;;;;;;;;;14.70;99.90;;;;;;4981361;28;19922;-70
2022/07/26 00:14:42;;;;;;;;;;;14.70;99.90;;;;;;4963892;28;19987;-70
2022/07/26 00:17:08;;;;;;;;;;;14.70;99.90;;;;;;4990563;28;19928;-70
2022/07/26 00:19:33;;;;;;;;;;;14.60;99.90;;;;;;4987651;28;20435;-70
2022/07/26 00:24:43;;;;;;;;;;;14.50;99.90;;;;;;4995249;28;20398;-69
2022/07/26 00:27:09;;;;;;;;;;;14.50;99.90;;;;;;4996238;28;20399;-70
2022/07/26 00:29:34;;;;;;;;;;;14.30;99.90;;;;;;4977536;28;20112;-69
2022/07/26 00:32:00;;;;;;;;;;;14.30;99.90;;;;;;4985948;28;19914;-70
2022/07/26 00:34:25;;;;;;;;;;;14.30;99.90;;;;;;4994903;28;20467;-70
2022/07/26 00:36:51;;;;;;;;;;;14.20;99.90;;;;;;4981990;28;20009;-69
2022/07/26 00:39:16;;;;;;;;;;;14.20;99.90;;;;;;4975887;28;20245;-69
2022/07/26 00:41:42;;;;;;;;;;;14.10;99.90;;;;;;4995766;28;19974;-70
2022/07/26 00:44:08;;;;;;;;;;;14.00;99.90;;;;;;4995653;28;20430;-69
2022/07/26 00:46:33;;;;;;;;;;;14.00;99.90;;;;;;4985883;28;19929;-70
2022/07/26 00:48:59;;;;;;;;;;;14.00;99.90;;;;;;4987484;28;19917;-69
2022/07/26 00:51:24;;;;;;;;;;;13.90;99.90;;;;;;4993933;28;19914;-69
2022/07/26 00:53:50;;;;;;;;;;;13.90;99.90;;;;;;4976750;28;19916;-69
2022/07/26 00:56:16;;;;;;;;;;;13.80;99.90;;;;;;4989583;28;19920;-70
2022/07/26 00:58:42;;;;;;;;;;;13.80;99.90;;;;;;4997158;28;19909;-69
2022/07/26 01:01:08;;;;;;;;;;;13.80;99.90;;;;;;4988866;28;19997;-70
2022/07/26 01:03:33;;;;;;;;;;;13.80;99.90;;;;;;4995747;28;20289;-70
2022/07/26 01:05:59;;;;;;;;;;;13.70;99.90;;;;;;4961776;28;19922;-69
2022/07/26 01:08:25;;;;;;;;;;;13.70;99.90;;;;;;4996693;28;19979;-70
2022/07/26 01:10:51;;;;;;;;;;;13.70;99.90;;;;;;4997980;28;19913;-70
2022/07/26 01:13:20;;;;;;;;;;;13.60;99.90;;;;;;4996139;28;19914;-69
2022/07/26 01:15:46;;;;;;;;;;;13.60;99.90;;;;;;4989204;28;20328;-69
2022/07/26 01:18:11;;;;;;;;;;;13.40;99.90;;;;;;4993583;28;20052;-70
2022/07/26 01:20:37;;;;;;;;;;;13.50;99.90;;;;;;4994973;28;20458;-70
2022/07/26 01:23:02;;;;;;;;;;;13.50;99.90;;;;;;4990577;28;19932;-69
2022/07/26 01:25:29;;;;;;;;;;;13.50;99.90;;;;;;4985474;28;19967;-69
2022/07/26 01:27:55;;;;;;;;;;;13.50;99.90;;;;;;4961682;28;20387;-69
2022/07/26 01:30:20;;;;;;;;;;;13.40;99.90;;;;;;4985927;28;19910;-69
2022/07/26 01:32:46;;;;;;;;;;;13.40;99.90;;;;;;4986812;28;19914;-69
2022/07/26 01:35:11;;;;;;;;;;;13.40;99.90;;;;;;4971305;28;20672;-69
2022/07/26 01:37:37;;;;;;;;;;;13.30;99.90;;;;;;4977559;28;19913;-69
2022/07/26 01:40:03;;;;;;;;;;;13.20;99.90;;;;;;4996514;28;19947;-70
2022/07/26 01:42:28;;;;;;;;;;;13.20;99.90;;;;;;4996807;28;20107;-70
2022/07/26 01:44:54;;;;;;;;;;;13.10;99.90;;;;;;4990866;28;19968;-69
2022/07/26 01:47:19;;;;;;;;;;;13.00;99.90;;;;;;4990081;28;19917;-70
2022/07/26 01:49:45;;;;;;;;;;;13.00;99.90;;;;;;4999988;28;19913;-69
2022/07/26 01:52:10;;;;;;;;;;;12.90;99.90;;;;;;4997774;28;19968;-70
2022/07/26 01:54:36;;;;;;;;;;;12.90;99.90;;;;;;4980841;28;19949;-70
2022/07/26 01:57:02;;;;;;;;;;;12.80;99.90;;;;;;4992997;28;19913;-70
2022/07/26 01:59:27;;;;;;;;;;;12.80;99.90;;;;;;4983507;28;19983;-70
2022/07/26 02:01:53;;;;;;;;;;;12.80;99.90;;;;;;4982435;28;19968;-70
2022/07/26 02:07:02;;;;;;;;;;;12.80;99.90;;;;;;4999206;28;19919;-70
2022/07/26 02:09:28;;;;;;;;;;;12.80;99.90;;;;;;5001258;28;20008;-69
2022/07/26 02:11:53;;;;;;;;;;;12.90;99.90;;;;;;4997479;28;20257;-70
2022/07/26 02:14:19;;;;;;;;;;;13.00;99.90;;;;;;4999327;28;20470;-70
2022/07/26 02:16:44;;;;;;;;;;;13.10;99.90;;;;;;4994628;28;19914;-69
2022/07/26 02:19:10;;;;;;;;;;;13.30;99.90;;;;;;4997319;28;19917;-69
2022/07/26 02:21:36;;;;;;;;;;;13.50;99.90;;;;;;4975575;28;19917;-70
2022/07/26 02:24:01;;;;;;;;;;;13.60;99.90;;;;;;4992763;28;19929;-69
2022/07/26 02:26:27;;;;;;;;;;;13.80;99.90;;;;;;4985950;28;19913;-70
2022/07/26 02:28:52;;;;;;;;;;;13.90;99.90;;;;;;4985582;28;20735;-71
2022/07/26 02:31:18;;;;;;;;;;;14.00;99.90;;;;;;4992499;28;19913;-70
2022/07/26 02:33:43;;;;;;;;;;;14.10;99.90;;;;;;4978477;28;19921;-70
2022/07/26 02:36:09;;;;;;;;;;;14.10;99.90;;;;;;4990231;28;20288;-70
2022/07/26 02:38:34;;;;;;;;;;;14.20;99.90;;;;;;4996637;28;19917;-70
2022/07/26 02:41:00;;;;;;;;;;;14.30;99.90;;;;;;4998367;28;20043;-70
2022/07/26 02:43:26;;;;;;;;;;;14.30;99.90;;;;;;4992828;28;19925;-70
2022/07/26 02:45:51;;;;;;;;;;;14.40;99.90;;;;;;4969863;28;20356;-70
2022/07/26 02:48:17;;;;;;;;;;;14.40;99.90;;;;;;5000346;28;19981;-70
2022/07/26 02:50:42;;;;;;;;;;;14.50;99.90;;;;;;4996122;28;20504;-70
2022/07/26 02:53:08;;;;;;;;;;;14.50;99.90;;;;;;5000727;28;20050;-69
2022/07/26 02:55:33;;;;;;;;;;;14.60;99.90;;;;;;4981769;28;20050;-70
2022/07/26 02:57:59;;;;;;;;;;;14.60;99.90;;;;;;5000611;28;20773;-70
2022/07/26 03:00:25;;;;;;;;;;;14.70;99.90;;;;;;4998596;28;20381;-70
2022/07/26 03:02:51;;;;;;;;;;;14.70;99.90;;;;;;4999347;28;20100;-69
2022/07/26 03:05:17;;;;;;;;;;;14.70;99.90;;;;;;4996081;28;20376;-70
2022/07/26 03:07:42;;;;;;;;;;;14.70;99.90;;;;;;4971172;28;19913;-70
2022/07/26 03:10:08;;;;;;;;;;;14.70;99.90;;;;;;4979717;28;19909;-70
2022/07/26 03:12:34;;;;;;;;;;;14.70;99.90;;;;;;4998447;28;19913;-70
2022/07/26 03:14:59;;;;;;;;;;;14.60;99.90;;;;;;4992186;28;19910;-69
2022/07/26 03:17:25;;;;;;;;;;;14.60;99.90;;;;;;4980377;28;20432;-70
2022/07/26 03:19:50;;;;;;;;;;;14.60;99.90;;;;;;4989987;28;19924;-70
2022/07/26 03:22:16;;;;;;;;;;;14.70;99.90;;;;;;4977927;28;20016;-70
2022/07/26 03:24:41;;;;;;;;;;;14.70;99.90;;;;;;4989117;28;19924;-69
2022/07/26 03:27:07;;;;;;;;;;;14.70;99.90;;;;;;4988594;28;19920;-70
2022/07/26 03:29:33;;;;;;;;;;;14.60;99.90;;;;;;4998928;28;19929;-70
2022/07/26 03:31:58;;;;;;;;;;;14.60;99.90;;;;;;4998106;28;19917;-70
2022/07/26 03:34:24;;;;;;;;;;;14.60;99.90;;;;;;4999442;28;19909;-70
2022/07/26 03:36:50;;;;;;;;;;;14.60;99.90;;;;;;4997058;28;20024;-70
2022/07/26 03:39:15;;;;;;;;;;;14.60;99.90;;;;;;4999434;28;19921;-70
2022/07/26 03:41:41;;;;;;;;;;;14.60;99.90;;;;;;4992653;28;19918;-70
2022/07/26 03:44:06;;;;;;;;;;;14.70;99.90;;;;;;4996443;28;20009;-70
2022/07/26 03:46:32;;;;;;;;;;;14.70;99.90;;;;;;4996778;28;19953;-70
2022/07/26 03:48:57;;;;;;;;;;;14.70;99.90;;;;;;4990283;28;19953;-70
2022/07/26 03:51:23;;;;;;;;;;;14.70;99.90;;;;;;4991476;28;20253;-70
2022/07/26 03:53:48;;;;;;;;;;;14.70;99.90;;;;;;4979933;28;20261;-70
2022/07/26 03:56:32;;;;;;;;;;;14.70;99.90;;;;;;4993373;28;20355;-70
2022/07/26 03:59:01;;;;;;;;;;;14.80;99.90;;;;;;4986102;28;20281;-69
2022/07/26 04:01:26;;;;;;;;;;;14.80;99.90;;;;;;4961396;28;19917;-70
2022/07/26 04:03:52;;;;;;;;;;;14.80;99.90;;;;;;4996625;28;19939;-69
2022/07/26 04:06:18;;;;;;;;;;;14.70;99.90;;;;;;4996490;28;19929;-71
2022/07/26 04:08:43;;;;;;;;;;;14.70;99.90;;;;;;4977033;28;19917;-70
2022/07/26 04:11:09;;;;;;;;;;;14.80;99.90;;;;;;4972935;28;20487;-70
2022/07/26 04:13:35;;;;;;;;;;;14.80;99.90;;;;;;4989648;28;19917;-70
2022/07/26 04:16:01;;;;;;;;;;;14.70;99.90;;;;;;4988864;28;20078;-70
2022/07/26 04:18:27;;;;;;;;;;;14.70;99.90;;;;;;4993912;28;19921;-71
2022/07/26 04:20:53;;;;;;;;;;;14.70;99.90;;;;;;4994531;28;19925;-70
2022/07/26 04:23:18;;;;;;;;;;;14.70;99.90;;;;;;4977156;28;19972;-70
2022/07/26 04:25:44;;;;;;;;;;;14.70;99.90;;;;;;4970215;28;19917;-70
2022/07/26 04:28:10;;;;;;;;;;;14.70;99.90;;;;;;4980923;28;19916;-70
2022/07/26 04:30:36;;;;;;;;;;;14.70;99.90;;;;;;4997226;28;20004;-71
2022/07/26 04:33:01;;;;;;;;;;;14.80;99.90;;;;;;4976844;28;20039;-70
2022/07/26 04:35:27;;;;;;;;;;;14.80;99.90;;;;;;4992787;28;19920;-70
2022/07/26 04:37:52;;;;;;;;;;;14.80;99.90;;;;;;4980257;28;19917;-71
2022/07/26 04:40:19;;;;;;;;;;;14.80;99.90;;;;;;4997425;28;19921;-70
2022/07/26 04:42:45;;;;;;;;;;;14.80;99.90;;;;;;4980199;28;19913;-71
2022/07/26 04:45:11;;;;;;;;;;;14.80;99.90;;;;;;4995730;28;19936;-71
2022/07/26 04:47:40;;;;;;;;;;;14.80;99.90;;;;;;4976616;28;20705;-70
2022/07/26 04:50:05;;;;;;;;;;;14.90;99.90;;;;;;4992755;28;19909;-70
2022/07/26 04:52:31;;;;;;;;;;;14.90;99.90;;;;;;4961794;28;20357;-70
2022/07/26 04:54:57;;;;;;;;;;;14.90;99.90;;;;;;4984309;28;19925;-70
2022/07/26 04:57:22;;;;;;;;;;;15.00;99.90;;;;;;4979645;28;20435;-70
2022/07/26 04:59:48;;;;;;;;;;;15.00;99.90;;;;;;4991535;28;19947;-70
2022/07/26 05:02:14;;;;;;;;;;;15.00;99.90;;;;;;4972625;28;20346;-70
2022/07/26 05:04:41;;;;;;;;;;;15.10;99.90;;;;;;4964886;28;20403;-70
2022/07/26 05:07:06;;;;;;;;;;;15.20;99.90;;;;;;4982673;28;20467;-70
2022/07/26 05:09:32;;;;;;;;;;;15.30;99.90;;;;;;4990792;28;19968;-70
2022/07/26 05:11:57;;;;;;;;;;;15.30;99.90;;;;;;4998514;28;19959;-70
2022/07/26 05:14:23;;;;;;;;;;;15.40;99.90;;;;;;4997480;28;19917;-70
2022/07/26 05:16:48;;;;;;;;;;;15.50;99.90;;;;;;4990470;28;19913;-70
2022/07/26 05:19:14;;;;;;;;;;;15.60;99.90;;;;;;4980583;28;19932;-71
2022/07/26 05:21:40;;;;;;;;;;;15.70;99.90;;;;;;4999412;28;20004;-70
2022/07/26 05:24:05;;;;;;;;;;;15.80;99.90;;;;;;4995949;28;20289;-70
2022/07/26 05:26:31;;;;;;;;;;;15.90;99.90;;;;;;4997900;28;19916;-70
2022/07/26 05:28:57;;;;;;;;;;;16.10;99.90;;;;;;4997787;28;19963;-70
2022/07/26 05:31:23;;;;;;;;;;;16.30;99.90;;;;;;4990944;28;20303;-70
2022/07/26 05:33:49;;;;;;;;;;;16.50;99.90;;;;;;4966831;28;19909;-71
2022/07/26 05:36:14;;;;;;;;;;;16.60;99.90;;;;;;4992244;28;20348;-70
2022/07/26 05:38:40;;;;;;;;;;;16.80;99.90;;;;;;5000536;28;19932;-70
2022/07/26 05:41:06;;;;;;;;;;;17.00;99.90;;;;;;4978884;28;19922;-70
2022/07/26 05:43:31;;;;;;;;;;;17.00;99.90;;;;;;4987529;28;19937;-71
2022/07/26 05:45:57;;;;;;;;;;;17.00;99.90;;;;;;4993482;28;20363;-70
2022/07/26 05:48:22;;;;;;;;;;;17.10;99.90;;;;;;4981599;28;19910;-70
2022/07/26 05:50:48;;;;;;;;;;;17.20;99.90;;;;;;4993286;28;19917;-71
2022/07/26 05:53:14;;;;;;;;;;;17.20;99.90;;;;;;5001154;28;19948;-70
2022/07/26 05:55:39;;;;;;;;;;;17.20;99.90;;;;;;5000543;28;19968;-71
2022/07/26 05:58:05;;;;;;;;;;;17.20;99.90;;;;;;4998589;28;20066;-70
2022/07/26 06:00:30;;;;;;;;;;;17.30;99.90;;;;;;4989230;28;19921;-70
2022/07/26 06:02:56;;;;;;;;;;;17.40;99.90;;;;;;4995547;28;19913;-71
2022/07/26 06:05:21;;;;;;;;;;;17.40;99.90;;;;;;4994641;28;20221;-71
2022/07/26 06:07:47;;;;;;;;;;;17.50;99.90;;;;;;4993544;28;19932;-70
2022/07/26 06:10:12;;;;;;;;;;;17.60;99.90;;;;;;4986686;28;19935;-70
2022/07/26 06:12:38;;;;;;;;;;;17.70;99.90;;;;;;4987621;28;19968;-71
2022/07/26 06:15:04;;;;;;;;;;;17.80;99.90;;;;;;4985923;28;19913;-70
2022/07/26 06:17:30;;;;;;;;;;;17.90;99.90;;;;;;4992179;28;19919;-71
2022/07/26 06:19:56;;;;;;;;;;;18.00;99.90;;;;;;4988695;28;20465;-70
2022/07/26 06:22:22;;;;;;;;;;;18.00;99.90;;;;;;4989191;28;19913;-70
2022/07/26 06:24:47;;;;;;;;;;;18.10;99.90;;;;;;4984900;28;20019;-70
2022/07/26 06:27:13;;;;;;;;;;;18.20;99.90;;;;;;4983731;28;20016;-70
2022/07/26 06:29:39;;;;;;;;;;;18.20;99.90;;;;;;4994697;28;19906;-70
2022/07/26 06:32:05;;;;;;;;;;;18.10;99.90;;;;;;4991328;28;19913;-70
2022/07/26 06:34:30;;;;;;;;;;;18.20;99.90;;;;;;4972139;28;19940;-71
2022/07/26 06:36:56;;;;;;;;;;;18.30;99.90;;;;;;4991795;28;19913;-70
2022/07/26 06:39:22;;;;;;;;;;;18.30;99.90;;;;;;4971589;28;20292;-71
2022/07/26 06:41:47;;;;;;;;;;;18.30;99.90;;;;;;4989535;28;20027;-70
2022/07/26 06:44:13;;;;;;;;;;;18.50;99.90;;;;;;4989346;28;20037;-70
2022/07/26 06:46:38;;;;;;;;;;;18.50;99.90;;;;;;4988172;28;19921;-70
2022/07/26 06:49:04;;;;;;;;;;;18.60;99.90;;;;;;4981939;28;19936;-70
2022/07/26 06:51:30;;;;;;;;;;;18.60;99.90;;;;;;4963272;28;20015;-71
2022/07/26 06:53:55;;;;;;;;;;;18.60;99.90;;;;;;4983724;28;19928;-70
2022/07/26 06:56:21;;;;;;;;;;;18.60;99.90;;;;;;4976336;28;19921;-70
2022/07/26 06:58:46;;;;;;;;;;;18.60;99.90;;;;;;4994938;28;20517;-71
2022/07/26 07:01:12;;;;;;;;;;;18.50;99.90;;;;;;4989503;28;19932;-70
2022/07/26 07:03:37;;;;;;;;;;;18.40;99.90;;;;;;4990515;28;19971;-71
2022/07/26 07:06:03;;;;;;;;;;;18.40;99.90;;;;;;4970980;28;20348;-70
2022/07/26 07:08:29;;;;;;;;;;;18.50;99.90;;;;;;4992904;28;20622;-71
2022/07/26 07:10:55;;;;;;;;;;;18.40;99.90;;;;;;4993649;28;19960;-70
2022/07/26 07:13:21;;;;;;;;;;;18.40;99.90;;;;;;4989282;28;19913;-70
2022/07/26 07:15:46;;;;;;;;;;;18.30;99.90;;;;;;4995294;28;19991;-70
2022/07/26 07:18:12;;;;;;;;;;;18.40;99.90;;;;;;4981049;28;19909;-71
2022/07/26 07:20:39;;;;;;;;;;;18.40;99.90;;;;;;4987519;28;19953;-70
2022/07/26 07:23:04;;;;;;;;;;;18.60;99.90;;;;;;4991526;28;19913;-70
2022/07/26 07:25:30;;;;;;;;;;;18.60;99.90;;;;;;4986974;28;20007;-70
2022/07/26 07:27:55;;;;;;;;;;;18.80;99.90;;;;;;4984779;28;20230;-70
2022/07/26 07:30:21;;;;;;;;;;;18.80;99.90;;;;;;4978196;28;19924;-71
2022/07/26 07:32:47;;;;;;;;;;;19.00;99.90;;;;;;4976972;28;20460;-70
2022/07/26 07:35:12;;;;;;;;;;;19.10;99.90;;;;;;4978205;28;19918;-70
2022/07/26 07:37:38;;;;;;;;;;;19.20;99.90;;;;;;4980246;28;19961;-70
2022/07/26 07:40:07;;;;;;;;;;;19.40;99.90;;;;;;4979143;28;19925;-70
2022/07/26 07:42:33;;;;;;;;;;;19.40;99.90;;;;;;4979977;28;19913;-70
2022/07/26 07:44:58;;;;;;;;;;;19.40;99.90;;;;;;4991607;28;19914;-70
2022/07/26 07:47:24;;;;;;;;;;;19.50;99.90;;;;;;4983475;28;19996;-71
2022/07/26 07:49:49;;;;;;;;;;;19.60;99.90;;;;;;4992313;28;19913;-71
2022/07/26 07:52:15;;;;;;;;;;;19.90;99.90;;;;;;4989158;28;19913;-71
2022/07/26 07:54:41;;;;;;;;;;;20.20;99.90;;;;;;4985969;28;19917;-71
2022/07/26 07:57:06;;;;;;;;;;;20.50;99.90;;;;;;4983676;28;19914;-71
2022/07/26 07:59:32;;;;;;;;;;;20.90;99.90;;;;;;4983538;28;19928;-71
2022/07/26 08:01:58;;;;;;;;;;;21.20;99.90;;;;;;4980393;28;20588;-71
2022/07/26 08:04:23;;;;;;;;;;;21.70;99.90;;;;;;4987263;28;19997;-71
2022/07/26 08:06:49;;;;;;;;;;;22.20;99.90;;;;;;4984687;28;19921;-71
2022/07/26 08:09:14;;;;;;;;;;;22.50;99.90;;;;;;4982723;28;20381;-72
2022/07/26 08:11:40;;;;;;;;;;;22.70;99.90;;;;;;4977305;28;19940;-71
2022/07/26 08:14:06;;;;;;;;;;;23.00;99.90;;;;;;4988417;28;19937;-74
2022/07/26 08:16:31;;;;;;;;;;;23.30;99.90;;;;;;4978498;28;19914;-75
2022/07/26 08:18:57;;;;;;;;;;;23.90;99.90;;;;;;4986432;28;20268;-72
2022/07/26 08:21:22;;;;;;;;;;;24.20;99.90;;;;;;4982422;28;19925;-72
2022/07/26 08:23:49;;;;;;;;;;;24.50;98.60;;;;;;4976825;28;19937;-69
2022/07/26 08:26:15;;;;;;;;;;;24.20;99.20;;;;;;4983879;28;20434;-70
2022/07/26 08:28:40;;;;;;;;;;;23.70;97.70;;;;;;4964380;28;20055;-73
2022/07/26 08:31:06;;;;;;;;;;;23.20;99.80;;;;;;4982202;28;19917;-73
2022/07/26 08:33:31;;;;;;;;;;;23.10;99.90;;;;;;4981521;28;20021;-73
2022/07/26 08:35:57;;;;;;;;;;;22.90;99.90;;;;;;4981602;28;20005;-74
2022/07/26 08:38:22;;;;;;;;;;;22.30;99.90;;;;;;4982528;28;19928;-74
2022/07/26 08:40:48;;;;;;;;;;;22.30;99.90;;;;;;4983356;28;19918;-74
2022/07/26 08:43:13;;;;;;;;;;;22.10;99.90;;;;;;4973249;28;20439;-74
2022/07/26 08:45:39;;;;;;;;;;;22.00;99.90;;;;;;4975960;28;20013;-72
2022/07/26 08:48:05;;;;;;;;;;;22.10;99.90;;;;;;4994782;28;20217;-72
2022/07/26 08:50:32;;;;;;;;;;;22.10;99.90;;;;;;4991138;28;20000;-74
2022/07/26 08:52:59;;;;;;;;;;;22.00;99.90;;;;;;4973105;28;19913;-74
2022/07/26 08:55:24;;;;;;;;;;;21.80;99.90;;;;;;4976318;28;20020;-73
2022/07/26 08:57:50;;;;;;;;;;;21.60;99.90;;;;;;4988847;28;20024;-74
2022/07/26 09:00:17;;;;;;;;;;;21.60;99.90;;;;;;4985502;28;19913;-69
2022/07/26 09:02:43;;;;;;;;;;;21.40;99.90;;;;;;4993354;28;19989;-69
2022/07/26 09:05:09;;;;;;;;;;;21.60;99.90;;;;;;4987151;28;19924;-74
2022/07/26 09:07:34;;;;;;;;;;;21.80;99.90;;;;;;4990420;28;20032;-76
2022/07/26 09:10:02;;;;;;;;;;;22.20;99.90;;;;;;4978968;28;19910;-74
2022/07/26 09:12:29;;;;;;;;;;;22.60;99.90;;;;;;4966853;28;19914;-74
2022/07/26 09:14:54;;;;;;;;;;;23.20;99.90;;;;;;4960659;28;19956;-74
2022/07/26 09:17:21;;;;;;;;;;;23.30;99.80;;;;;;4986473;28;19959;-75
2022/07/26 09:20:02;;;;;;;;;;;23.40;99.50;;;;;;4994969;28;20448;-73
2022/07/26 09:22:28;;;;;;;;;;;23.30;99.90;;;;;;4983162;28;19921;-74
2022/07/26 09:24:54;;;;;;;;;;;22.60;99.90;;;;;;4983699;28;20279;-74
2022/07/26 09:27:19;;;;;;;;;;;22.00;99.90;;;;;;4986085;28;19940;-74
2022/07/26 09:29:51;;;;;;;;;;;21.80;99.90;;;;;;4995668;28;19921;-73
2022/07/26 09:32:18;;;;;;;;;;;21.30;99.90;;;;;;4994867;28;20246;-72
2022/07/26 09:34:45;;;;;;;;;;;21.00;99.90;;;;;;4992015;28;19913;-74
2022/07/26 09:37:11;;;;;;;;;;;20.60;99.90;;;;;;4992969;28;20016;-73
2022/07/26 09:40:03;;;;;;;;;;;20.40;99.90;;;;;;4986749;28;19914;-73
2022/07/26 09:42:28;;;;;;;;;;;20.10;99.90;;;;;;4983294;28;19913;-73
2022/07/26 09:44:54;;;;;;;;;;;20.00;99.90;;;;;;4979049;28;19972;-73
2022/07/26 09:47:20;;;;;;;;;;;20.00;99.90;;;;;;4980775;28;19952;-73
2022/07/26 09:49:46;;;;;;;;;;;19.90;99.90;;;;;;4985572;28;20016;-74
2022/07/26 09:52:14;;;;;;;;;;;19.90;99.90;;;;;;4993956;28;20265;-73
2022/07/26 09:54:40;;;;;;;;;;;19.70;99.90;;;;;;4969836;28;19913;-73
2022/07/26 09:57:05;;;;;;;;;;;19.70;99.90;;;;;;4979544;28;19913;-72
2022/07/26 09:59:31;;;;;;;;;;;19.70;99.90;;;;;;4991865;28;20020;-73
2022/07/26 10:01:57;;;;;;;;;;;19.70;99.90;;;;;;4989638;28;20388;-73
2022/07/26 10:04:23;;;;;;;;;;;19.90;99.90;;;;;;4986011;28;19913;-73
2022/07/26 10:06:49;;;;;;;;;;;20.00;99.90;;;;;;4987406;28;19953;-73
2022/07/26 10:09:15;;;;;;;;;;;20.30;99.90;;;;;;4990576;28;19917;-74
2022/07/26 10:11:43;;;;;;;;;;;20.60;99.90;;;;;;4974851;28;19989;-73
2022/07/26 10:14:27;;;;;;;;;;;21.10;99.90;;;;;;4995226;28;19917;-73
2022/07/26 10:16:53;;;;;;;;;;;21.50;99.90;;;;;;4978513;28;20048;-74
2022/07/26 10:19:39;;;;;;;;;;;21.90;99.90;;;;;;4994765;28;20409;-73
2022/07/26 10:22:23;;;;;;;;;;;22.10;99.90;;;;;;4989003;28;19982;-75
2022/07/26 10:24:49;;;;;;;;;;;22.60;99.90;;;;;;4986203;28;19917;-72
2022/07/26 10:27:33;;;;;;;;;;;22.80;99.90;;;;;;4993954;28;19928;-76
2022/07/26 10:30:17;;;;;;;;;;;22.90;99.90;;;;;;4994455;28;19960;-76
2022/07/26 10:32:55;;;;;;;;;;;23.20;99.90;;;;;;4998248;28;20707;-74
2022/07/26 10:35:31;;;;;;;;;;;23.50;99.90;;;;;;4992250;28;19940;-75
2022/07/26 10:37:57;;;;;;;;;;;23.50;99.90;;;;;;4995599;28;19924;-75
2022/07/26 10:40:28;;;;;;;;;;;24.10;99.20;;;;;;4976330;28;19932;-74
2022/07/26 10:43:07;;;;;;;;;;;24.10;99.90;;;;;;4998402;28;20386;-74
2022/07/26 10:45:33;;;;;;;;;;;24.10;96.40;;;;;;4991607;28;20927;-75
2022/07/26 10:48:08;;;;;;;;;;;23.90;98.70;;;;;;4989675;28;19933;-73
2022/07/26 10:50:34;;;;;;;;;;;24.00;98.40;;;;;;4987436;28;20004;-74
2022/07/26 10:53:00;;;;;;;;;;;24.10;97.10;;;;;;4995001;28;19913;-75
2022/07/26 10:55:26;;;;;;;;;;;24.10;99.00;;;;;;4992648;28;19964;-75
2022/07/26 10:57:52;;;;;;;;;;;24.30;97.90;;;;;;4992765;28;19949;-75
2022/07/26 11:00:19;;;;;;;;;;;24.60;96.40;;;;;;4998148;28;19961;-74
2022/07/26 11:03:02;;;;;;;;;;;24.70;94.00;;;;;;4998937;28;19917;-75
2022/07/26 11:05:30;;;;;;;;;;;24.90;96.70;;;;;;4986069;28;20451;-74
2022/07/26 11:07:57;;;;;;;;;;;25.30;92.40;;;;;;4990088;28;19991;-74
2022/07/26 11:10:23;;;;;;;;;;;25.30;93.90;;;;;;4986053;28;20401;-74
2022/07/26 11:13:17;;;;;;;2.28;0.65;;;25.60;92.10;;;;;;4975549;28;20015;-75
2022/07/26 11:15:59;;;;;;;0.65;0.65;;;25.80;93.50;;;;;;4993789;28;20038;-74
2022/07/26 11:18:34;;;;;;;2.20;0.70;;;27.30;94.80;;;;;;4990196;28;20088;-75
2022/07/26 11:21:13;;;;;;;4.20;0.95;;;28.30;90.10;;;;;;4994463;28;20073;-72
2022/07/26 11:23:43;;;;;;;2.15;0.70;;;28.30;82.70;;;;;;4989978;28;20042;-72
2022/07/26 11:26:19;;;;;;;0.98;0.70;;;28.20;77.40;;;;;;4997232;28;20111;-72
2022/07/26 11:28:59;;;;;;;2.25;0.85;;;27.70;77.90;;;;;;4994938;28;20099;-72
2022/07/26 11:31:45;;;;;;;2.17;0.70;;;27.80;71.30;;;;;;4996540;28;20026;-72
2022/07/26 11:34:20;;;;;;;1.60;0.52;;;27.90;72.80;;;;;;4991437;28;20036;-72
2022/07/26 11:36:47;;;;;;;1.45;0.65;;;27.70;70.30;;;;;;4976893;28;20034;-72
2022/07/26 11:39:24;;;;;;;1.17;0.50;;;26.80;74.70;;;;;;4993117;28;20041;-72
2022/07/26 11:41:58;;;;;;;0.82;0.70;;;26.10;81.00;;;;;;4990536;28;20119;-73
2022/07/26 11:44:25;;;;;;;0.98;0.70;;;25.50;86.90;;;;;;4971006;28;20041;-74
2022/07/26 11:46:51;;;;;;;2.28;0.88;;;24.90;90.70;;;;;;4966410;28;20165;-73
2022/07/26 11:49:28;;;;;;;1.98;0.98;;;24.60;94.00;;;;;;4967518;28;20068;-74
2022/07/26 11:51:58;;;;;;;1.80;0.93;;;24.30;94.70;;;;;;4989243;28;20087;-73
2022/07/26 11:54:27;;;;;;;1.65;1.30;;;24.00;94.10;;;;;;4988413;28;20029;-74
2022/07/26 11:56:55;;;;;;;1.95;0.50;;;24.00;95.20;;;;;;4988672;28;20091;-73
2022/07/26 11:59:25;;;;;;;1.73;0.68;;;24.30;95.80;;;;;;4988826;28;20022;-74
2022/07/26 12:01:52;;;;;;;0.80;0.60;;;24.50;97.50;;;;;;4995882;28;20414;-74
2022/07/26 12:04:24;;;;;;;0.90;0.80;;;24.50;95.60;;;;;;4975064;28;20038;-73
2022/07/26 12:06:51;;;;;;;0.68;0.50;;;24.70;92.80;;;;;;4996023;28;20264;-73
2022/07/26 12:09:34;;;;;;;1.40;0.82;;;24.50;93.90;;;;;;4974470;28;20816;-73
2022/07/26 12:12:02;;;;;;;2.25;0.80;;;24.40;94.20;;;;;;4975882;28;20033;-73
2022/07/26 12:14:31;;;;;;;1.33;0.60;;;23.90;95.60;;;;;;4982487;28;20080;-74
2022/07/26 12:16:57;;;;;;;1.80;0.70;;;23.60;96.70;;;;;;4987140;28;20423;-73
2022/07/26 12:19:27;;;;;;;2.55;0.70;;;23.30;98.50;;;;;;4983622;28;20034;-73
2022/07/26 12:22:07;;;;;;;4.20;0.90;;;23.00;98.70;;;;;;4983676;28;20518;-73
2022/07/26 12:24:57;;;;;;;1.35;0.70;;;22.70;99.90;;;;;;4982904;28;20559;-73
2022/07/26 12:27:24;;;;;;;1.13;0.82;;;22.50;99.90;;;;;;4980294;28;20041;-73
2022/07/26 12:30:00;;;;;;;5.13;1.38;;;22.10;99.90;;;;;;4988226;28;20117;-73
2022/07/26 12:32:38;;;;;;;2.10;1.30;;;21.80;99.90;;;;;;4985213;28;20041;-73
2022/07/26 12:35:07;;;;;;;2.58;1.40;;;21.50;99.90;;;;;;4992332;28;20037;-72
2022/07/26 12:37:48;;;;;;;2.25;1.55;;;21.20;99.90;;;;;;4991907;28;20057;-73
2022/07/26 12:40:16;;;;;;;2.95;1.30;;;21.00;99.90;;;;;;4980179;28;20105;-73
2022/07/26 12:42:51;;;;;;;1.55;1.42;;;20.80;99.90;;;;;;4990614;28;20445;-73
2022/07/26 12:45:23;;;;;;;1.70;1.40;;;20.70;99.90;;;;;;4983799;28;20121;-73
2022/07/26 12:47:50;;;;;;;4.75;1.30;;;20.60;99.90;;;;;;4982533;28;20049;-73
2022/07/26 12:50:18;;;;;;;4.35;1.90;;;20.60;99.90;;;;;;4980425;28;20022;-73
2022/07/26 12:52:44;;;;;;;2.42;1.45;;;20.50;99.90;;;;;;4985568;28;20045;-73
2022/07/26 12:55:16;;;;;;;1.13;1.02;;;20.40;99.90;;;;;;4986383;28;20030;-73
2022/07/26 12:57:43;;;;;;;4.47;1.40;;;20.30;99.90;;;;;;4983424;28;20108;-73
2022/07/26 13:00:11;;;;;;;1.30;1.10;;;20.10;99.90;;;;;;4995071;28;20052;-73
2022/07/26 13:02:42;;;;;;;3.70;1.30;;;20.20;99.90;;;;;;4993227;28;20061;-72
2022/07/26 13:05:09;;;;;;;1.60;1.00;;;20.30;99.90;;;;;;4990280;28;20048;-73
2022/07/26 13:07:34;;;;;;;;;;;20.10;99.90;;;;;;4987955;28;20042;-74
2022/07/26 13:10:00;;;;;;;;;;;20.10;99.90;;;;;;4997538;28;20004;-73
2022/07/26 13:12:31;;;;;;;;;;;20.10;99.90;;;;;;4474916;28;10000729;-73
2022/07/26 13:14:56;;;;;;;;;;;20.10;99.90;;;;;;4960000;28;19936;-76
2022/07/26 13:17:22;;;;;;;;;;;20.20;99.90;;;;;;4981819;28;19917;-75
2022/07/26 13:19:47;;;;;;;;;;;20.20;99.90;;;;;;4955125;28;19925;-73
2022/07/26 13:22:13;;;;;;;;;;;20.40;99.90;;;;;;4991138;28;20411;-74
2022/07/26 13:24:39;;;;;;;;;;;20.60;99.90;;;;;;4984377;28;19917;-74
2022/07/26 13:27:05;;;;;;;;;;;20.80;99.90;;;;;;3950074;28;10000171;-73
2022/07/26 13:29:31;;;;;;;;;;;20.90;99.90;;;;;;4984468;28;19967;-74
2022/07/26 13:31:56;;;;;;;;;;;20.80;99.90;;;;;;4985794;28;19922;-74
2022/07/26 13:34:22;;;;;;;;;;;20.90;99.90;;;;;;4973138;28;19929;-74
2022/07/26 13:36:49;;;;;;;;;;;21.00;99.90;;;;;;4989990;28;19917;-73
2022/07/26 13:39:15;;;;;;;;;;;20.90;99.90;;;;;;4989769;28;19921;-74
2022/07/26 13:41:40;;;;;;;;;;;20.90;99.90;;;;;;4970992;28;20609;-73
2022/07/26 13:44:06;;;;;;;;;;;20.90;99.90;;;;;;4988287;28;20256;-74
2022/07/26 13:46:31;;;;;;;;;;;20.90;99.90;;;;;;4973684;28;19920;-73
2022/07/26 13:48:58;;;;;;;;;;;21.20;99.90;;;;;;4988362;28;20035;-74
2022/07/26 13:51:55;;;;;;;;;;;21.40;99.90;;;;;;4973841;28;20027;-74
2022/07/26 13:54:11;;;;;;;;;;;21.50;99.90;;;;;;4991773;28;19964;-73
2022/07/26 13:56:36;;;;;;;;;;;21.80;99.90;;;;;;4988722;28;19938;-74
2022/07/26 13:59:02;;;;;;;;;;;21.80;99.90;;;;;;4986405;28;19917;-74
2022/07/26 14:01:27;;;;;;;;;;;21.90;99.90;;;;;;4987989;28;20057;-74
2022/07/26 14:03:53;;;;;;;;;;;21.70;99.90;;;;;;4988527;28;19918;-74
2022/07/26 14:06:19;;;;;;;;;;;21.70;99.90;;;;;;4971211;28;19949;-74
2022/07/26 14:08:44;;;;;;;;;;;21.80;99.90;;;;;;4988368;28;20241;-75